createdAt,value
2023-03-30T00:00:00.309Z,12.4
2023-03-30T00:01:00.677Z,12.4
2023-03-30T00:02:00.272Z,12.4
2023-03-30T00:03:00.455Z,12.4
2023-03-30T00:04:00.453Z,12.4
2023-03-30T00:05:00.456Z,12.4
2023-03-30T00:06:02.443Z,12.4
2023-03-30T00:07:00.283Z,12.4
2023-03-30T00:08:00.358Z,12.4
2023-03-30T00:09:00.265Z,12.4
2023-03-30T00:10:00.272Z,12.4
2023-03-30T00:11:04.955Z,12.4
2023-03-30T00:12:00.254Z,12.3
2023-03-30T00:13:00.281Z,12.3
2023-03-30T00:14:00.425Z,12.4
2023-03-30T00:15:00.275Z,12.4
2023-03-30T00:16:00.421Z,12.4
2023-03-30T00:17:00.309Z,12.4
2023-03-30T00:18:00.335Z,12.3
2023-03-30T00:19:00.262Z,12.3
2023-03-30T00:20:00.300Z,12.4
2023-03-30T00:21:00.363Z,12.4
2023-03-30T00:22:00.256Z,12.3
2023-03-30T00:23:00.266Z,12.3
2023-03-30T00:24:00.278Z,12.2
2023-03-30T00:25:00.254Z,12.2
2023-03-30T00:26:00.282Z,12.3
2023-03-30T00:27:00.742Z,12.3
2023-03-30T00:28:00.270Z,12.3
2023-03-30T00:29:00.290Z,12.3
2023-03-30T00:30:00.399Z,12.3
2023-03-30T00:31:00.261Z,12.3
2023-03-30T00:32:00.305Z,12.4
2023-03-30T00:33:00.307Z,12.4
2023-03-30T00:34:00.284Z,12.4
2023-03-30T00:35:00.256Z,12.4
2023-03-30T00:36:00.302Z,12.4
2023-03-30T00:37:00.250Z,12.4
2023-03-30T00:38:00.341Z,12.3
2023-03-30T00:39:00.275Z,12.3
2023-03-30T00:40:00.261Z,12.4
2023-03-30T00:41:00.439Z,12.4
2023-03-30T00:42:00.286Z,12.4
2023-03-30T00:43:01.855Z,12.4
2023-03-30T00:44:02.835Z,12.3
2023-03-30T00:45:05.792Z,12.3
2023-03-30T00:46:00.358Z,12.3
2023-03-30T00:47:00.275Z,12.3
2023-03-30T00:48:10.251Z,12.5
2023-03-30T00:49:01.790Z,12.5
2023-03-30T00:50:00.857Z,12.4
2023-03-30T00:51:03.748Z,12.4
2023-03-30T00:52:00.270Z,12.5
2023-03-30T00:53:02.312Z,12.5
2023-03-30T00:54:05.330Z,12.5
2023-03-30T00:55:00.262Z,12.5
2023-03-30T00:56:01.861Z,12.4
2023-03-30T00:57:00.323Z,12.4
2023-03-30T00:58:00.570Z,12.5
2023-03-30T00:59:00.633Z,12.5
2023-03-30T01:00:00.326Z,12.4
2023-03-30T01:01:02.029Z,12.4
2023-03-30T01:02:00.369Z,12.4
2023-03-30T01:03:03.345Z,12.4
2023-03-30T01:04:00.747Z,12.4
2023-03-30T01:05:01.144Z,12.4
2023-03-30T01:06:01.929Z,12.4
2023-03-30T01:07:00.295Z,12.4
2023-03-30T01:08:00.481Z,12.4
2023-03-30T01:09:00.399Z,12.4
2023-03-30T01:10:00.325Z,12.4
2023-03-30T01:11:01.014Z,12.4
2023-03-30T01:12:00.279Z,12.3
2023-03-30T01:13:00.873Z,12.3
2023-03-30T01:14:02.436Z,12.3
2023-03-30T01:15:00.325Z,12.3
2023-03-30T01:16:10.286Z,12.3
2023-03-30T01:17:01.274Z,12.3
2023-03-30T01:18:10.215Z,12.2
2023-03-30T01:19:00.280Z,12.2
2023-03-30T01:20:01.307Z,12.2
2023-03-30T01:21:10.208Z,12.2
2023-03-30T01:22:10.191Z,12.2
2023-03-30T01:23:10.210Z,12.2
2023-03-30T01:24:10.206Z,12.2
2023-03-30T01:25:07.711Z,12.2
2023-03-30T01:26:10.199Z,12.2
2023-03-30T01:27:10.186Z,12.2
2023-03-30T01:28:10.217Z,12.3
2023-03-30T01:29:06.208Z,12.3
2023-03-30T01:30:10.194Z,12.2
2023-03-30T01:31:10.244Z,12.2
2023-03-30T01:32:00.247Z,12.3
2023-03-30T01:33:10.210Z,12.3
2023-03-30T01:34:10.298Z,12.3
2023-03-30T01:35:10.300Z,12.3
2023-03-30T01:36:08.762Z,12.3
2023-03-30T01:37:10.224Z,12.3
2023-03-30T01:38:03.514Z,12.2
2023-03-30T01:39:03.511Z,12.2
2023-03-30T01:40:10.206Z,12.3
2023-03-30T01:41:06.253Z,12.3
2023-03-30T01:42:10.188Z,12.3
2023-03-30T01:43:07.020Z,12.3
2023-03-30T01:44:10.217Z,12.3
2023-03-30T01:45:10.222Z,12.3
2023-03-30T01:46:06.456Z,12.4
2023-03-30T01:47:06.511Z,12.4
2023-03-30T01:48:10.208Z,12.4
2023-03-30T01:49:07.253Z,12.4
2023-03-30T01:50:05.656Z,12.3
2023-03-30T01:51:05.614Z,12.3
2023-03-30T01:52:04.086Z,12.4
2023-03-30T01:53:05.184Z,12.4
2023-03-30T01:54:10.203Z,12.5
2023-03-30T01:55:02.921Z,12.5
2023-03-30T01:56:04.946Z,12.5
2023-03-30T01:57:05.901Z,12.5
2023-03-30T01:58:04.372Z,12.5
2023-03-30T01:59:00.253Z,12.5
2023-03-30T02:00:03.248Z,12.5
2023-03-30T02:01:01.151Z,12.5
2023-03-30T02:02:02.064Z,12.5
2023-03-30T02:03:03.334Z,12.5
2023-03-30T02:04:01.585Z,12.5
2023-03-30T02:05:01.392Z,12.5
2023-03-30T02:06:07.165Z,12.4
2023-03-30T02:07:03.540Z,12.4
2023-03-30T02:08:06.130Z,12.5
2023-03-30T02:09:00.333Z,12.5
2023-03-30T02:10:03.599Z,12.4
2023-03-30T02:11:00.496Z,12.4
2023-03-30T02:12:01.713Z,12.3
2023-03-30T02:13:01.534Z,12.3
2023-03-30T02:14:01.912Z,12.4
2023-03-30T02:15:02.071Z,12.4
2023-03-30T02:16:10.239Z,12.4
2023-03-30T02:17:06.259Z,12.4
2023-03-30T02:18:00.330Z,12.4
2023-03-30T02:19:00.374Z,12.4
2023-03-30T02:20:00.566Z,12.4
2023-03-30T02:21:00.275Z,12.4
2023-03-30T02:22:00.271Z,12.3
2023-03-30T02:23:00.504Z,12.3
2023-03-30T02:24:02.207Z,12.4
2023-03-30T02:25:00.349Z,12.4
2023-03-30T02:26:00.693Z,12.4
2023-03-30T02:27:00.405Z,12.4
2023-03-30T02:28:00.294Z,12.5
2023-03-30T02:29:00.282Z,12.5
2023-03-30T02:30:00.288Z,12.6
2023-03-30T02:31:00.418Z,12.6
2023-03-30T02:32:00.504Z,12.6
2023-03-30T02:33:00.682Z,12.6
2023-03-30T02:34:08.907Z,12.6
2023-03-30T02:35:10.191Z,12.6
2023-03-30T02:36:00.299Z,12.7
2023-03-30T02:37:07.490Z,12.7
2023-03-30T02:38:10.188Z,12.8
2023-03-30T02:39:08.713Z,12.8
2023-03-30T02:40:00.233Z,12.7
2023-03-30T02:41:07.579Z,12.7
2023-03-30T02:42:08.670Z,12.7
2023-03-30T02:43:10.207Z,12.7
2023-03-30T02:44:00.230Z,12.7
2023-03-30T02:45:07.706Z,12.7
2023-03-30T02:46:00.322Z,12.7
2023-03-30T02:47:03.705Z,12.7
2023-03-30T02:48:10.257Z,12.7
2023-03-30T02:49:01.270Z,12.7
2023-03-30T02:50:05.225Z,12.7
2023-03-30T02:51:10.190Z,12.7
2023-03-30T02:52:10.201Z,12.8
2023-03-30T02:53:10.190Z,12.8
2023-03-30T02:54:07.299Z,12.8
2023-03-30T02:55:07.056Z,12.8
2023-03-30T02:56:05.073Z,12.8
2023-03-30T02:57:08.422Z,12.8
2023-03-30T02:58:10.185Z,12.9
2023-03-30T02:59:02.966Z,12.9
2023-03-30T03:00:06.925Z,12.9
2023-03-30T03:01:03.324Z,12.9
2023-03-30T03:02:03.783Z,13.0
2023-03-30T03:03:04.396Z,13.0
2023-03-30T03:04:01.592Z,13.0
2023-03-30T03:05:00.858Z,13.0
2023-03-30T03:06:01.072Z,13.0
2023-03-30T03:07:00.348Z,13.0
2023-03-30T03:08:00.278Z,13.0
2023-03-30T03:09:00.474Z,13.0
2023-03-30T03:10:00.353Z,12.9
2023-03-30T03:11:00.294Z,12.9
2023-03-30T03:12:00.278Z,13.1
2023-03-30T03:13:00.280Z,13.1
2023-03-30T03:14:00.422Z,13.0
2023-03-30T03:15:00.272Z,13.0
2023-03-30T03:16:02.219Z,13.0
2023-03-30T03:17:00.323Z,13.0
2023-03-30T03:18:00.326Z,13.0
2023-03-30T03:19:00.310Z,13.0
2023-03-30T03:20:00.756Z,13.1
2023-03-30T03:21:00.410Z,13.1
2023-03-30T03:22:00.296Z,13.1
2023-03-30T03:23:00.256Z,13.1
2023-03-30T03:24:00.422Z,13.1
2023-03-30T03:25:00.277Z,13.1
2023-03-30T03:26:00.304Z,13.1
2023-03-30T03:27:00.275Z,13.1
2023-03-30T03:28:00.277Z,13.1
2023-03-30T03:29:00.252Z,13.1
2023-03-30T03:30:00.359Z,13.1
2023-03-30T03:31:00.503Z,13.1
2023-03-30T03:32:00.249Z,13.1
2023-03-30T03:33:00.297Z,13.1
2023-03-30T03:34:00.717Z,13.0
2023-03-30T03:35:00.257Z,13.0
2023-03-30T03:36:00.595Z,13.2
2023-03-30T03:37:00.272Z,13.2
2023-03-30T03:38:00.573Z,13.1
2023-03-30T03:39:00.257Z,13.1
2023-03-30T03:40:00.281Z,13.1
2023-03-30T03:41:00.269Z,13.1
2023-03-30T03:42:00.250Z,13.1
2023-03-30T03:43:00.262Z,13.1
2023-03-30T03:44:00.247Z,13.0
2023-03-30T03:45:00.336Z,13.0
2023-03-30T03:46:00.449Z,13.0
2023-03-30T03:47:00.253Z,13.0
2023-03-30T03:48:00.296Z,13.0
2023-03-30T03:49:00.311Z,13.0
2023-03-30T03:50:00.571Z,13.1
2023-03-30T03:51:00.373Z,13.1
2023-03-30T03:52:00.274Z,13.1
2023-03-30T03:53:00.258Z,13.1
2023-03-30T03:54:00.459Z,13.1
2023-03-30T03:55:00.271Z,13.1
2023-03-30T03:56:00.341Z,13.0
2023-03-30T03:57:00.359Z,13.0
2023-03-30T03:58:02.168Z,13.0
2023-03-30T03:59:00.270Z,13.0
2023-03-30T04:00:00.275Z,12.9
2023-03-30T04:01:00.754Z,12.9
2023-03-30T04:02:00.274Z,13.0
2023-03-30T04:03:00.294Z,13.0
2023-03-30T04:04:00.297Z,13.1
2023-03-30T04:05:00.417Z,13.1
2023-03-30T04:06:00.528Z,13.0
2023-03-30T04:07:00.291Z,13.0
2023-03-30T04:08:00.326Z,13.0
2023-03-30T04:09:00.299Z,13.0
2023-03-30T04:10:00.717Z,13.0
2023-03-30T04:11:04.816Z,13.0
2023-03-30T04:12:00.262Z,13.0
2023-03-30T04:13:00.293Z,13.0
2023-03-30T04:14:00.274Z,13.0
2023-03-30T04:15:00.272Z,13.0
2023-03-30T04:16:00.885Z,12.9
2023-03-30T04:17:00.271Z,12.9
2023-03-30T04:18:00.328Z,12.9
2023-03-30T04:19:00.250Z,12.9
2023-03-30T04:20:00.265Z,12.9
2023-03-30T04:21:01.504Z,12.9
2023-03-30T04:22:00.378Z,12.8
2023-03-30T04:23:00.262Z,12.8
2023-03-30T04:24:00.372Z,12.8
2023-03-30T04:25:00.510Z,12.8
2023-03-30T04:26:00.909Z,12.8
2023-03-30T04:27:00.980Z,12.8
2023-03-30T04:28:00.260Z,12.8
2023-03-30T04:29:00.292Z,12.8
2023-03-30T04:30:00.275Z,12.7
2023-03-30T04:31:02.107Z,12.7
2023-03-30T04:32:00.292Z,12.8
2023-03-30T04:33:00.291Z,12.8
2023-03-30T04:34:00.380Z,12.7
2023-03-30T04:35:00.632Z,12.7
2023-03-30T04:36:00.695Z,12.7
2023-03-30T04:37:00.252Z,12.7
2023-03-30T04:38:00.385Z,12.6
2023-03-30T04:39:00.273Z,12.6
2023-03-30T04:40:01.342Z,12.6
2023-03-30T04:41:00.287Z,12.6
2023-03-30T04:42:00.477Z,12.6
2023-03-30T04:43:00.270Z,12.6
2023-03-30T04:44:01.504Z,12.6
2023-03-30T04:45:00.272Z,12.6
2023-03-30T04:46:00.345Z,12.5
2023-03-30T04:47:00.267Z,12.5
2023-03-30T04:48:00.293Z,12.5
2023-03-30T04:49:00.652Z,12.5
2023-03-30T04:50:00.442Z,12.5
2023-03-30T04:51:00.276Z,12.5
2023-03-30T04:52:00.263Z,12.5
2023-03-30T04:53:00.266Z,12.5
2023-03-30T04:54:00.267Z,12.5
2023-03-30T04:55:00.295Z,12.5
2023-03-30T04:56:00.262Z,12.6
2023-03-30T04:57:00.281Z,12.6
2023-03-30T04:58:00.272Z,12.6
2023-03-30T04:59:00.306Z,12.6
2023-03-30T05:00:00.262Z,12.6
2023-03-30T05:01:00.291Z,12.6
2023-03-30T05:02:00.310Z,12.5
2023-03-30T05:03:00.284Z,12.5
2023-03-30T05:04:00.254Z,12.5
2023-03-30T05:05:00.445Z,12.5
2023-03-30T05:06:00.277Z,12.6
2023-03-30T05:07:00.567Z,12.6
2023-03-30T05:08:00.276Z,12.5
2023-03-30T05:09:00.277Z,12.5
2023-03-30T05:10:00.276Z,12.4
2023-03-30T05:11:00.995Z,12.4
2023-03-30T05:12:00.262Z,12.4
2023-03-30T05:13:00.304Z,12.4
2023-03-30T05:14:00.262Z,12.5
2023-03-30T05:15:00.270Z,12.5
2023-03-30T05:16:00.268Z,12.5
2023-03-30T05:17:00.326Z,12.5
2023-03-30T05:18:00.377Z,12.5
2023-03-30T05:19:00.269Z,12.5
2023-03-30T05:20:00.278Z,12.5
2023-03-30T05:21:00.279Z,12.5
2023-03-30T05:22:00.260Z,12.4
2023-03-30T05:23:00.277Z,12.4
2023-03-30T05:24:00.320Z,12.3
2023-03-30T05:25:00.363Z,12.3
2023-03-30T05:26:00.306Z,12.2
2023-03-30T05:27:00.256Z,12.2
2023-03-30T05:28:00.277Z,12.3
2023-03-30T05:29:00.275Z,12.3
2023-03-30T05:30:00.262Z,12.1
2023-03-30T05:31:00.533Z,12.1
2023-03-30T05:32:00.293Z,12.1
2023-03-30T05:33:00.302Z,12.1
2023-03-30T05:34:00.273Z,12.1
2023-03-30T05:35:00.377Z,12.1
2023-03-30T05:36:00.272Z,12.0
2023-03-30T05:37:00.259Z,12.0
2023-03-30T05:38:00.271Z,11.9
2023-03-30T05:39:00.528Z,11.9
2023-03-30T05:40:00.274Z,12.0
2023-03-30T05:41:00.561Z,12.0
2023-03-30T05:42:00.279Z,12.0
2023-03-30T05:43:00.278Z,12.0
2023-03-30T05:44:00.274Z,12.1
2023-03-30T05:45:00.346Z,12.1
2023-03-30T05:46:00.339Z,12.0
2023-03-30T05:47:00.267Z,12.0
2023-03-30T05:48:00.306Z,12.0
2023-03-30T05:49:00.275Z,12.0
2023-03-30T05:50:00.356Z,12.0
2023-03-30T05:51:02.317Z,12.0
2023-03-30T05:52:00.296Z,12.1
2023-03-30T05:53:00.264Z,12.1
2023-03-30T05:54:00.272Z,12.0
2023-03-30T05:55:00.268Z,12.0
2023-03-30T05:56:00.281Z,11.9
2023-03-30T05:57:00.314Z,11.9
2023-03-30T05:58:00.270Z,11.9
2023-03-30T05:59:00.259Z,11.9
2023-03-30T06:00:00.303Z,11.9
2023-03-30T06:01:00.256Z,11.9
2023-03-30T06:02:00.265Z,12.0
2023-03-30T06:03:00.515Z,12.0
2023-03-30T06:04:00.411Z,12.0
2023-03-30T06:05:00.302Z,12.0
2023-03-30T06:06:00.285Z,11.9
2023-03-30T06:07:00.255Z,11.9
2023-03-30T06:08:00.293Z,12.0
2023-03-30T06:09:00.273Z,12.0
2023-03-30T06:10:00.275Z,11.9
2023-03-30T06:11:00.295Z,11.9
2023-03-30T06:12:00.249Z,11.8
2023-03-30T06:13:00.352Z,11.8
2023-03-30T06:14:00.273Z,11.9
2023-03-30T06:15:00.256Z,11.9
2023-03-30T06:16:03.070Z,11.9
2023-03-30T06:17:00.324Z,11.9
2023-03-30T06:18:01.153Z,11.9
2023-03-30T06:19:02.513Z,11.9
2023-03-30T06:20:00.411Z,11.7
2023-03-30T06:21:00.581Z,11.7
2023-03-30T06:22:00.269Z,11.7
2023-03-30T06:23:00.253Z,11.7
2023-03-30T06:24:00.270Z,11.7
2023-03-30T06:25:00.266Z,11.7
2023-03-30T06:26:00.287Z,11.8
2023-03-30T06:27:00.254Z,11.8
2023-03-30T06:28:00.267Z,11.8
2023-03-30T06:29:00.252Z,11.8
2023-03-30T06:30:00.326Z,11.8
2023-03-30T06:31:00.488Z,11.8
2023-03-30T06:32:00.762Z,11.7
2023-03-30T06:33:00.325Z,11.7
2023-03-30T06:34:00.288Z,11.7
2023-03-30T06:35:00.277Z,11.7
2023-03-30T06:36:00.272Z,11.7
2023-03-30T06:37:00.269Z,11.7
2023-03-30T06:38:00.308Z,11.8
2023-03-30T06:39:02.049Z,11.8
2023-03-30T06:40:00.398Z,11.7
2023-03-30T06:41:03.129Z,11.7
2023-03-30T06:42:00.257Z,11.7
2023-03-30T06:43:00.268Z,11.7
2023-03-30T06:44:00.276Z,11.7
2023-03-30T06:45:00.276Z,11.7
2023-03-30T06:46:00.329Z,11.7
2023-03-30T06:47:00.251Z,11.7
2023-03-30T06:48:00.345Z,11.8
2023-03-30T06:49:00.551Z,11.8
2023-03-30T06:50:00.263Z,11.8
2023-03-30T06:51:00.311Z,11.8
2023-03-30T06:52:03.651Z,11.8
2023-03-30T06:53:00.248Z,11.8
2023-03-30T06:54:00.822Z,11.7
2023-03-30T06:55:00.259Z,11.7
2023-03-30T06:56:00.258Z,11.6
2023-03-30T06:57:00.318Z,11.6
2023-03-30T06:58:00.259Z,11.7
2023-03-30T07:02:00.653Z,11.8
2023-03-30T07:03:00.728Z,11.8
2023-03-30T07:06:12.737Z,11.9
2023-03-30T07:08:39.137Z,11.9
2023-03-30T07:09:00.551Z,11.9
2023-03-30T07:10:00.458Z,11.8
2023-03-30T07:12:00.287Z,11.7
2023-03-30T07:13:00.270Z,11.7
2023-03-30T07:14:00.282Z,11.7
2023-03-30T07:15:00.329Z,11.7
2023-03-30T07:16:00.437Z,11.6
2023-03-30T07:17:00.912Z,11.6
2023-03-30T07:18:00.555Z,11.7
2023-03-30T07:19:00.278Z,11.7
2023-03-30T07:20:00.651Z,11.7
2023-03-30T07:21:00.654Z,11.7
2023-03-30T07:22:00.296Z,11.8
2023-03-30T07:23:00.791Z,11.8
2023-03-30T07:24:00.345Z,11.9
2023-03-30T07:25:00.314Z,11.9
2023-03-30T07:26:00.287Z,11.8
2023-03-30T07:27:00.310Z,11.8
2023-03-30T07:28:00.299Z,11.8
2023-03-30T07:29:00.285Z,11.8
2023-03-30T07:30:10.275Z,11.8
2023-03-30T07:31:04.761Z,11.8
2023-03-30T07:32:00.306Z,11.9
2023-03-30T07:33:00.395Z,11.9
2023-03-30T07:34:00.283Z,12.1
2023-03-30T07:35:00.300Z,12.1
2023-03-30T07:36:00.323Z,12.1
2023-03-30T07:37:01.217Z,12.1
2023-03-30T07:38:03.718Z,12.1
2023-03-30T07:39:00.283Z,12.1
2023-03-30T07:40:00.350Z,12.2
2023-03-30T07:41:00.291Z,12.2
2023-03-30T07:42:00.283Z,12.1
2023-03-30T07:43:00.286Z,12.1
2023-03-30T07:44:00.276Z,12.3
2023-03-30T07:45:00.276Z,12.3
2023-03-30T07:46:00.418Z,12.2
2023-03-30T07:47:00.292Z,12.2
2023-03-30T07:48:00.364Z,12.3
2023-03-30T07:52:00.408Z,12.4
2023-03-30T07:53:00.399Z,12.4
2023-03-30T07:54:00.719Z,12.3
2023-03-30T07:55:00.409Z,12.3
2023-03-30T07:56:00.423Z,12.3
2023-03-30T07:57:00.468Z,12.3
2023-03-30T07:58:00.726Z,12.4
2023-03-30T07:59:01.793Z,12.4
2023-03-30T08:00:00.402Z,12.4
2023-03-30T08:01:00.572Z,12.4
2023-03-30T08:02:00.383Z,12.5
2023-03-30T08:03:00.495Z,12.5
2023-03-30T08:04:00.560Z,12.6
2023-03-30T08:05:00.682Z,12.6
2023-03-30T08:06:01.309Z,12.6
2023-03-30T08:07:00.553Z,12.6
2023-03-30T08:08:00.413Z,12.7
2023-03-30T08:09:00.420Z,12.7
2023-03-30T08:10:00.466Z,12.7
2023-03-30T08:11:00.431Z,12.7
2023-03-30T08:12:00.472Z,12.8
2023-03-30T08:13:00.410Z,12.8
2023-03-30T08:14:01.106Z,12.8
2023-03-30T08:15:00.416Z,12.8
2023-03-30T08:16:00.495Z,12.8
2023-03-30T08:17:00.435Z,12.8
2023-03-30T08:18:00.462Z,12.8
2023-03-30T08:19:00.453Z,12.8
2023-03-30T08:20:00.431Z,12.8
2023-03-30T08:21:00.400Z,12.8
2023-03-30T08:22:00.394Z,12.7
2023-03-30T08:23:00.438Z,12.7
2023-03-30T08:24:00.404Z,12.7
2023-03-30T08:25:00.403Z,12.7
2023-03-30T08:26:00.397Z,12.8
2023-03-30T08:27:00.433Z,12.8
2023-03-30T08:28:00.443Z,12.8
2023-03-30T08:29:00.393Z,12.8
2023-03-30T08:30:00.424Z,12.9
2023-03-30T08:31:02.637Z,12.9
2023-03-30T08:32:00.474Z,13.0
2023-03-30T08:33:00.526Z,13.0
2023-03-30T08:34:00.391Z,13.0
2023-03-30T08:35:00.398Z,13.0
2023-03-30T08:36:00.506Z,13.0
2023-03-30T08:37:00.415Z,13.0
2023-03-30T08:38:00.384Z,13.1
2023-03-30T08:39:00.380Z,13.1
2023-03-30T08:40:00.381Z,13.1
2023-03-30T08:41:00.486Z,13.1
2023-03-30T08:42:10.346Z,13.0
2023-03-30T08:43:07.926Z,13.0
2023-03-30T08:44:01.260Z,13.0
2023-03-30T08:45:00.525Z,13.0
2023-03-30T08:46:01.213Z,13.1
2023-03-30T08:47:02.369Z,13.1
2023-03-30T08:48:00.544Z,13.3
2023-03-30T08:49:06.051Z,13.3
2023-03-30T08:50:00.378Z,13.3
2023-03-30T08:51:04.618Z,13.3
2023-03-30T08:52:03.273Z,13.2
2023-03-30T08:53:01.836Z,13.2
2023-03-30T08:54:02.245Z,13.1
2023-03-30T08:55:00.654Z,13.1
2023-03-30T08:56:04.731Z,13.1
2023-03-30T08:57:10.353Z,13.1
2023-03-30T08:58:01.432Z,13.2
2023-03-30T08:59:03.636Z,13.2
2023-03-30T09:00:06.705Z,13.3
2023-03-30T09:01:09.200Z,13.3
2023-03-30T09:02:02.370Z,13.2
2023-03-30T09:03:05.570Z,13.2
2023-03-30T09:04:10.337Z,13.3
2023-03-30T09:05:00.420Z,13.3
2023-03-30T09:06:05.743Z,13.3
2023-03-30T09:07:04.072Z,13.3
2023-03-30T09:08:10.319Z,13.3
2023-03-30T09:09:00.398Z,13.3
2023-03-30T09:10:00.507Z,13.4
2023-03-30T09:11:02.558Z,13.4
2023-03-30T09:12:03.508Z,13.7
2023-03-30T09:13:02.572Z,13.7
2023-03-30T09:14:03.396Z,13.8
2023-03-30T09:15:03.516Z,13.8
2023-03-30T09:16:00.386Z,13.9
2023-03-30T09:17:06.020Z,13.9
2023-03-30T09:18:07.958Z,13.7
2023-03-30T09:19:02.502Z,13.7
2023-03-30T09:20:04.043Z,13.7
2023-03-30T09:21:01.640Z,13.7
2023-03-30T09:22:01.172Z,13.8
2023-03-30T09:23:01.235Z,13.8
2023-03-30T09:24:08.961Z,13.8
2023-03-30T09:25:00.513Z,13.8
2023-03-30T09:26:10.332Z,13.8
2023-03-30T09:27:06.792Z,13.8
2023-03-30T09:28:01.385Z,13.7
2023-03-30T09:29:05.172Z,13.7
2023-03-30T09:30:08.577Z,13.6
2023-03-30T09:31:02.127Z,13.6
2023-03-30T09:32:03.025Z,13.6
2023-03-30T09:33:05.051Z,13.6
2023-03-30T09:34:02.702Z,13.5
2023-03-30T09:35:04.290Z,13.5
2023-03-30T09:36:07.237Z,13.4
2023-03-30T09:37:05.613Z,13.4
2023-03-30T09:38:00.398Z,13.4
2023-03-30T09:39:00.422Z,13.4
2023-03-30T09:40:07.926Z,13.3
2023-03-30T09:41:05.730Z,13.3
2023-03-30T09:42:10.329Z,13.3
2023-03-30T09:43:07.332Z,13.3
2023-03-30T09:44:00.973Z,13.4
2023-03-30T09:45:04.660Z,13.4
2023-03-30T09:46:03.862Z,13.4
2023-03-30T09:47:01.029Z,13.4
2023-03-30T09:48:04.494Z,13.5
2023-03-30T09:49:10.315Z,13.5
2023-03-30T09:50:01.458Z,13.5
2023-03-30T09:51:00.416Z,13.5
2023-03-30T09:52:01.945Z,13.5
2023-03-30T09:53:01.860Z,13.5
2023-03-30T09:54:02.132Z,13.5
2023-03-30T09:55:10.340Z,13.5
2023-03-30T09:56:06.250Z,13.6
2023-03-30T09:57:00.467Z,13.6
2023-03-30T09:58:09.304Z,13.7
2023-03-30T09:59:10.319Z,13.7
2023-03-30T10:00:10.348Z,13.6
2023-03-30T10:01:02.839Z,13.6
2023-03-30T10:02:10.790Z,13.8
2023-03-30T10:03:01.687Z,13.8
2023-03-30T10:04:05.743Z,14.0
2023-03-30T10:05:01.672Z,14.0
2023-03-30T10:06:02.114Z,14.1
2023-03-30T10:07:06.973Z,14.1
2023-03-30T10:08:01.955Z,14.1
2023-03-30T10:09:02.190Z,14.1
2023-03-30T10:10:10.333Z,14.1
2023-03-30T10:11:00.496Z,14.1
2023-03-30T10:12:00.431Z,14.0
2023-03-30T10:13:02.049Z,14.0
2023-03-30T10:14:00.424Z,14.1
2023-03-30T10:15:01.089Z,14.1
2023-03-30T10:16:03.901Z,14.1
2023-03-30T10:17:01.425Z,14.1
2023-03-30T10:18:05.018Z,14.1
2023-03-30T10:19:02.206Z,14.1
2023-03-30T10:20:14.111Z,14.1
2023-03-30T10:21:00.385Z,14.1
2023-03-30T10:22:00.586Z,14.1
2023-03-30T10:23:02.901Z,14.1
2023-03-30T10:24:02.383Z,14.1
2023-03-30T10:25:10.017Z,14.1
2023-03-30T10:26:01.412Z,14.1
2023-03-30T10:27:08.545Z,14.1
2023-03-30T10:28:01.567Z,14.1
2023-03-30T10:29:02.114Z,14.1
2023-03-30T10:30:07.657Z,14.1
2023-03-30T10:31:03.435Z,14.1
2023-03-30T10:32:02.307Z,14.0
2023-03-30T10:33:01.275Z,14.0
2023-03-30T10:34:01.312Z,14.1
2023-03-30T10:35:00.651Z,14.1
2023-03-30T10:36:00.458Z,14.2
2023-03-30T10:37:03.276Z,14.2
2023-03-30T10:38:01.382Z,14.2
2023-03-30T10:39:10.338Z,14.2
2023-03-30T10:40:01.446Z,14.4
2023-03-30T10:41:01.997Z,14.4
2023-03-30T10:42:01.490Z,14.4
2023-03-30T10:43:01.952Z,14.4
2023-03-30T10:44:04.663Z,14.4
2023-03-30T10:45:02.416Z,14.4
2023-03-30T10:46:19.505Z,14.7
2023-03-30T10:47:08.356Z,14.7
2023-03-30T10:48:00.585Z,14.8
2023-03-30T10:49:07.922Z,14.8
2023-03-30T10:50:10.323Z,15.2
2023-03-30T10:51:00.371Z,15.2
2023-03-30T10:52:00.412Z,15.1
2023-03-30T10:53:08.127Z,15.1
2023-03-30T10:54:10.317Z,15.3
2023-03-30T10:55:06.995Z,15.3
2023-03-30T10:56:07.020Z,15.5
2023-03-30T10:57:02.986Z,15.5
2023-03-30T10:58:03.642Z,15.2
2023-03-30T10:59:10.327Z,15.2
2023-03-30T11:00:03.669Z,15.3
2023-03-30T11:01:10.363Z,15.3
2023-03-30T11:02:10.316Z,15.2
2023-03-30T11:03:10.463Z,15.2
2023-03-30T11:04:20.567Z,15.1
2023-03-30T11:05:10.321Z,15.1
2023-03-30T11:06:10.319Z,15.0
2023-03-30T11:07:00.648Z,15.0
2023-03-30T11:08:00.385Z,15.1
2023-03-30T11:09:02.707Z,15.1
2023-03-30T11:10:10.337Z,15.1
2023-03-30T11:11:00.464Z,15.1
2023-03-30T11:12:03.971Z,15.5
2023-03-30T11:13:03.485Z,15.5
2023-03-30T11:14:01.809Z,15.7
2023-03-30T11:15:10.344Z,15.7
2023-03-30T11:16:10.356Z,15.9
2023-03-30T11:17:03.362Z,15.9
2023-03-30T11:18:00.528Z,15.9
2023-03-30T11:19:00.519Z,15.9
2023-03-30T11:20:07.196Z,15.6
2023-03-30T11:21:03.370Z,15.6
2023-03-30T11:22:08.388Z,15.9
2023-03-30T11:23:05.058Z,15.9
2023-03-30T11:24:05.866Z,15.7
2023-03-30T11:25:01.419Z,15.7
2023-03-30T11:26:03.209Z,15.7
2023-03-30T11:27:10.332Z,15.7
2023-03-30T11:28:01.416Z,15.8
2023-03-30T11:29:07.003Z,15.8
2023-03-30T11:30:01.483Z,15.9
2023-03-30T11:31:03.733Z,15.9
2023-03-30T11:32:10.420Z,15.7
2023-03-30T11:33:05.109Z,15.7
2023-03-30T11:34:06.410Z,16.0
2023-03-30T11:35:10.315Z,16.0
2023-03-30T11:36:04.003Z,16.2
2023-03-30T11:37:00.379Z,16.2
2023-03-30T11:38:03.624Z,16.1
2023-03-30T11:39:01.310Z,16.1
2023-03-30T11:40:08.666Z,16.3
2023-03-30T11:41:04.864Z,16.3
2023-03-30T11:42:03.651Z,16.1
2023-03-30T11:43:00.462Z,16.1
2023-03-30T11:44:00.426Z,16.3
2023-03-30T11:45:01.440Z,16.3
2023-03-30T11:46:04.405Z,16.1
2023-03-30T11:47:00.391Z,16.1
2023-03-30T11:48:06.101Z,16.2
2023-03-30T11:49:06.473Z,16.2
2023-03-30T11:50:10.329Z,16.2
2023-03-30T11:51:10.339Z,16.2
2023-03-30T11:52:00.367Z,16.3
2023-03-30T11:53:00.364Z,16.3
2023-03-30T11:54:10.316Z,16.2
2023-03-30T11:55:03.915Z,16.2
2023-03-30T11:56:06.050Z,15.9
2023-03-30T11:57:10.339Z,15.9
2023-03-30T11:58:07.893Z,15.9
2023-03-30T11:59:10.334Z,15.9
2023-03-30T12:00:10.341Z,15.6
2023-03-30T12:01:10.331Z,15.6
2023-03-30T12:02:10.346Z,15.5
2023-03-30T12:03:03.699Z,15.5
2023-03-30T12:04:03.752Z,15.6
2023-03-30T12:05:05.308Z,15.6
2023-03-30T12:06:10.339Z,15.9
2023-03-30T12:08:10.236Z,16.0
2023-03-30T12:09:10.244Z,16.0
2023-03-30T12:10:04.073Z,16.0
2023-03-30T12:11:04.792Z,16.0
2023-03-30T12:12:01.305Z,16.0
2023-03-30T12:13:01.178Z,16.0
2023-03-30T12:14:00.694Z,15.8
2023-03-30T12:15:04.898Z,15.8
2023-03-30T12:16:04.401Z,16.1
2023-03-30T12:17:04.437Z,16.1
2023-03-30T12:18:10.265Z,16.0
2023-03-30T12:19:03.530Z,16.0
2023-03-30T12:20:01.297Z,16.0
2023-03-30T12:21:10.243Z,16.0
2023-03-30T12:22:03.682Z,15.6
2023-03-30T12:23:03.531Z,15.6
2023-03-30T12:27:06.103Z,15.5
2023-03-30T12:28:03.173Z,15.4
2023-03-30T12:30:10.543Z,15.4
2023-03-30T12:31:00.880Z,15.4
2023-03-30T12:32:00.643Z,15.4
2023-03-30T12:33:09.105Z,15.4
2023-03-30T12:34:07.785Z,15.5
2023-03-30T12:35:00.716Z,15.5
2023-03-30T12:36:10.531Z,15.6
2023-03-30T12:37:04.309Z,15.6
2023-03-30T12:38:04.340Z,15.5
2023-03-30T12:39:01.553Z,15.5
2023-03-30T12:40:02.385Z,15.4
2023-03-30T12:41:03.047Z,15.4
2023-03-30T12:42:00.575Z,15.5
2023-03-30T12:43:07.074Z,15.5
2023-03-30T12:44:10.513Z,15.6
2023-03-30T12:45:10.520Z,15.6
2023-03-30T12:46:06.444Z,15.5
2023-03-30T12:47:02.944Z,15.5
2023-03-30T12:48:03.853Z,15.7
2023-03-30T12:49:10.546Z,15.7
2023-03-30T12:50:08.018Z,15.7
2023-03-30T12:51:10.522Z,15.7
2023-03-30T12:52:10.565Z,15.8
2023-03-30T12:53:08.223Z,15.8
2023-03-30T12:54:10.519Z,15.8
2023-03-30T12:55:10.529Z,15.8
2023-03-30T12:56:04.407Z,16.0
2023-03-30T12:57:07.948Z,16.0
2023-03-30T12:58:10.522Z,16.0
2023-03-30T12:59:03.855Z,16.0
2023-03-30T13:00:01.623Z,16.1
2023-03-30T13:01:00.601Z,16.1
2023-03-30T13:02:10.533Z,15.9
2023-03-30T13:03:10.516Z,15.9
2023-03-30T13:04:09.261Z,16.0
2023-03-30T13:05:00.982Z,16.0
2023-03-30T13:06:01.517Z,15.6
2023-03-30T13:07:02.287Z,15.6
2023-03-30T13:08:02.261Z,15.5
2023-03-30T13:09:10.524Z,15.5
2023-03-30T13:10:03.404Z,15.3
2023-03-30T13:11:10.520Z,15.3
2023-03-30T13:12:00.614Z,15.2
2023-03-30T13:13:01.334Z,15.2
2023-03-30T13:14:10.531Z,15.1
2023-03-30T13:15:03.195Z,15.1
2023-03-30T13:16:00.608Z,15.2
2023-03-30T13:17:00.644Z,15.2
2023-03-30T13:18:02.821Z,15.4
2023-03-30T13:19:10.530Z,15.4
2023-03-30T13:20:22.212Z,15.7
2023-03-30T13:21:10.572Z,15.7
2023-03-30T13:22:01.625Z,15.8
2023-03-30T13:23:04.596Z,15.8
2023-03-30T13:24:04.260Z,15.7
2023-03-30T13:25:02.297Z,15.7
2023-03-30T13:26:10.513Z,15.7
2023-03-30T13:27:10.545Z,15.7
2023-03-30T13:28:12.415Z,15.7
2023-03-30T13:29:05.996Z,15.7
2023-03-30T13:30:02.776Z,15.8
2023-03-30T13:31:08.683Z,15.8
2023-03-30T13:32:10.513Z,15.8
2023-03-30T13:33:05.790Z,15.8